Time;durP1;ratioP1;P1;durP2;ratioP2;P2;SDS_P1;SDS_P2;PMS_P1;PMS_P2;Temp;Humidity;BMP_temperature;BMP_pressure;BME280_temperature;BME280_humidity;BME280_pressure;Samples;Min_cycle;Max_cycle;Signal;HPM_P1;HPM_P2
2023/10/21 00:01:28;;;;;;;1.67;0.90;;;12.60;1.00;;;;;;6307784;22;20156;-38
2023/10/21 00:03:53;;;;;;;2.20;1.13;;;12.70;1.00;;;;;;6307064;22;20485;-39
2023/10/21 00:06:19;;;;;;;2.43;1.20;;;12.80;1.00;;;;;;6305764;22;20192;-38
2023/10/21 00:08:45;;;;;;;2.00;1.07;;;12.80;1.00;;;;;;6307557;22;20160;-40
2023/10/21 00:11:12;;;;;;;1.17;0.70;;;12.80;1.00;;;;;;6307284;22;20500;-37
2023/10/21 00:13:38;;;;;;;1.10;0.70;;;12.90;1.00;;;;;;6309182;22;20156;-40
2023/10/21 00:16:04;;;;;;;2.23;1.00;;;12.90;1.00;;;;;;6309358;22;20421;-40
2023/10/21 00:18:29;;;;;;;1.20;0.70;;;12.90;1.00;;;;;;6308672;22;20163;-39
2023/10/21 00:20:55;;;;;;;1.50;0.80;;;13.00;1.00;;;;;;6308230;22;20418;-41
2023/10/21 00:23:22;;;;;;;1.07;0.70;;;13.00;1.00;;;;;;6306309;22;20136;-37
2023/10/21 00:25:48;;;;;;;1.70;1.00;;;13.00;1.00;;;;;;6308043;22;20226;-38
2023/10/21 00:28:14;;;;;;;1.67;0.90;;;13.10;1.00;;;;;;6307473;22;20389;-37
2023/10/21 00:30:40;;;;;;;2.03;1.10;;;13.10;1.00;;;;;;6307523;22;20766;-37
2023/10/21 00:33:06;;;;;;;1.47;0.90;;;13.10;1.00;;;;;;6306599;22;20386;-40
2023/10/21 00:35:31;;;;;;;1.43;0.87;;;13.10;1.00;;;;;;6306798;22;20354;-38
2023/10/21 00:37:57;;;;;;;1.37;0.90;;;13.10;1.00;;;;;;6304311;22;20128;-38
2023/10/21 00:40:23;;;;;;;1.77;0.60;;;13.10;1.00;;;;;;6305648;22;20535;-40
2023/10/21 00:42:49;;;;;;;1.03;0.70;;;13.10;1.00;;;;;;6304230;22;20155;-38
2023/10/21 00:45:14;;;;;;;1.40;0.90;;;13.00;1.00;;;;;;6304556;22;20186;-39
2023/10/21 00:47:41;;;;;;;1.10;0.70;;;13.00;1.00;;;;;;6276924;22;20149;-40
2023/10/21 00:50:07;;;;;;;1.23;0.70;;;13.00;1.00;;;;;;6303730;22;20186;-38
2023/10/21 00:52:39;;;;;;;1.73;0.80;;;13.00;1.00;;;;;;6302996;22;20618;-38
2023/10/21 00:55:05;;;;;;;1.23;0.80;;;12.90;1.00;;;;;;6277816;22;20389;-39
2023/10/21 00:57:31;;;;;;;1.20;0.90;;;12.90;1.00;;;;;;6305632;22;20359;-38
2023/10/21 00:59:57;;;;;;;1.20;0.80;;;12.90;1.00;;;;;;6308220;22;20677;-39
2023/10/21 01:02:22;;;;;;;1.90;0.60;;;12.90;1.00;;;;;;6307853;22;20459;-39
2023/10/21 01:04:49;;;;;;;1.80;0.97;;;12.90;1.00;;;;;;6308635;22;20249;-40
2023/10/21 01:07:16;;;;;;;1.40;0.70;;;12.80;1.00;;;;;;6308494;22;20479;-38
2023/10/21 01:09:42;;;;;;;1.60;0.70;;;12.80;1.00;;;;;;6307438;22;20397;-40
2023/10/21 01:12:08;;;;;;;1.30;0.90;;;12.80;1.00;;;;;;6308604;22;20359;-37
2023/10/21 01:14:34;;;;;;;1.00;0.60;;;12.90;1.00;;;;;;6308342;22;20467;-39
2023/10/21 01:16:59;;;;;;;1.00;0.60;;;12.90;1.00;;;;;;6308407;22;20411;-38
2023/10/21 01:19:25;;;;;;;1.37;0.50;;;13.00;1.00;;;;;;6309243;22;20318;-40
2023/10/21 01:21:51;;;;;;;1.10;0.50;;;12.90;1.00;;;;;;6309334;22;20151;-38
2023/10/21 01:24:17;;;;;;;1.00;0.60;;;12.90;1.00;;;;;;6282714;22;20452;-40
2023/10/21 01:26:42;;;;;;;1.17;0.60;;;13.00;1.00;;;;;;6309502;22;20201;-37
2023/10/21 01:29:09;;;;;;;1.63;0.50;;;13.00;1.00;;;;;;6308305;22;20175;-38
2023/10/21 01:31:35;;;;;;;0.90;0.50;;;12.90;1.00;;;;;;6281106;22;20524;-39
2023/10/21 01:34:01;;;;;;;1.53;0.50;;;13.00;1.00;;;;;;6308970;22;20463;-38
2023/10/21 01:36:28;;;;;;;2.60;0.60;;;13.00;1.00;;;;;;6308993;22;20746;-42
2023/10/21 01:38:53;;;;;;;1.43;0.40;;;13.00;1.00;;;;;;6282575;22;20132;-40
2023/10/21 01:41:19;;;;;;;0.80;0.30;;;13.10;1.00;;;;;;6283132;22;20681;-38
2023/10/21 01:43:45;;;;;;;0.90;0.40;;;13.20;1.00;;;;;;6309430;22;20183;-39
2023/10/21 01:46:10;;;;;;;0.80;0.40;;;13.20;99.90;;;;;;6307421;22;20252;-39
2023/10/21 01:48:36;;;;;;;1.30;0.50;;;13.20;99.90;;;;;;6308402;22;20452;-39
2023/10/21 01:51:05;;;;;;;0.83;0.40;;;13.30;99.90;;;;;;6308278;22;20411;-39
2023/10/21 01:53:31;;;;;;;1.30;0.40;;;13.40;99.90;;;;;;6309384;22;20160;-39
2023/10/21 01:56:03;;;;;;;0.97;0.30;;;13.40;99.90;;;;;;6308083;22;20395;-37
2023/10/21 01:58:31;;;;;;;0.90;0.40;;;13.50;63.40;;;;;;6310446;22;20472;-39
2023/10/21 02:00:57;;;;;;;0.87;0.40;;;13.50;13.80;;;;;;6309828;22;20390;-37
2023/10/21 02:03:24;;;;;;;1.03;0.37;;;13.50;51.80;;;;;;6281883;22;20388;-40
2023/10/21 02:05:50;;;;;;;0.90;0.50;;;13.50;1.00;;;;;;6310700;22;20967;-39
2023/10/21 02:08:16;;;;;;;0.70;0.30;;;13.60;1.00;;;;;;6310468;22;20390;-39
2023/10/21 02:10:41;;;;;;;0.90;0.40;;;13.60;1.00;;;;;;6310630;22;20147;-40
2023/10/21 02:13:07;;;;;;;0.80;0.40;;;13.60;1.00;;;;;;6310729;22;20516;-40
2023/10/21 02:15:40;;;;;;;0.80;0.40;;;13.60;1.00;;;;;;6309287;22;20136;-40
2023/10/21 02:18:06;;;;;;;1.53;0.47;;;13.60;1.00;;;;;;6310885;22;20135;-40
2023/10/21 02:20:32;;;;;;;0.70;0.30;;;13.60;1.00;;;;;;6308633;22;20386;-38
2023/10/21 02:22:57;;;;;;;1.37;0.40;;;13.50;1.00;;;;;;6308589;22;20239;-39
2023/10/21 02:25:23;;;;;;;0.80;0.30;;;13.60;1.00;;;;;;6309093;22;20876;-41
2023/10/21 02:27:49;;;;;;;1.10;0.60;;;13.60;1.00;;;;;;6307921;22;20167;-39
2023/10/21 02:30:15;;;;;;;1.47;0.60;;;13.60;1.00;;;;;;6308711;22;20136;-39
2023/10/21 02:32:45;;;;;;;1.27;0.70;;;13.60;1.00;;;;;;6282558;22;20140;-37
2023/10/21 02:35:11;;;;;;;0.90;0.40;;;13.60;1.00;;;;;;6309793;22;20420;-38
2023/10/21 02:37:37;;;;;;;0.70;0.30;;;13.50;1.00;;;;;;6309585;22;20805;-39
2023/10/21 02:40:03;;;;;;;0.90;0.40;;;13.50;22.40;;;;;;6309554;22;20378;-40
2023/10/21 02:42:29;;;;;;;1.97;0.40;;;13.40;4.70;;;;;;6309050;22;20132;-38
2023/10/21 02:44:55;;;;;;;1.10;0.40;;;13.40;21.30;;;;;;6308560;22;20590;-38
2023/10/21 02:47:20;;;;;;;1.63;0.40;;;13.40;27.70;;;;;;6308701;22;20519;-40
2023/10/21 02:49:46;;;;;;;0.80;0.40;;;13.40;25.30;;;;;;6308935;22;20507;-39
2023/10/21 02:52:13;;;;;;;3.63;0.60;;;13.40;16.20;;;;;;6308181;22;20217;-39
2023/10/21 02:54:38;;;;;;;1.33;0.50;;;13.40;4.60;;;;;;6308441;22;20268;-39
2023/10/21 02:57:04;;;;;;;0.90;0.60;;;13.30;94.00;;;;;;6281759;22;20397;-40
2023/10/21 02:59:30;;;;;;;2.03;0.50;;;13.40;53.30;;;;;;6310324;22;20245;-39
2023/10/21 03:01:56;;;;;;;3.20;0.50;;;13.40;29.20;;;;;;6307916;22;20152;-39
2023/10/21 03:04:21;;;;;;;0.90;0.47;;;13.30;47.90;;;;;;6308230;22;20179;-39
2023/10/21 03:06:47;;;;;;;0.80;0.30;;;13.30;37.40;;;;;;6306939;22;20283;-39
2023/10/21 03:09:15;;;;;;;1.13;0.50;;;13.30;28.80;;;;;;6308304;22;20198;-39
2023/10/21 03:11:41;;;;;;;0.90;0.40;;;13.30;27.70;;;;;;6307632;22;20382;-39
2023/10/21 03:14:07;;;;;;;1.30;0.63;;;13.20;99.90;;;;;;6308230;22;20497;-39
2023/10/21 03:16:32;;;;;;;1.73;0.40;;;13.30;57.80;;;;;;6309721;22;20222;-40
2023/10/21 03:18:58;;;;;;;1.20;0.60;;;13.20;83.50;;;;;;6307749;22;20156;-39
2023/10/21 03:21:24;;;;;;;0.90;0.40;;;13.20;99.90;;;;;;6280499;22;20330;-39
2023/10/21 03:23:49;;;;;;;0.90;0.40;;;13.10;99.90;;;;;;6306352;22;20159;-39
2023/10/21 03:26:15;;;;;;;1.30;0.83;;;13.10;99.90;;;;;;6307266;22;20439;-38
2023/10/21 03:28:43;;;;;;;1.23;0.43;;;13.10;99.90;;;;;;6306683;22;20186;-40
2023/10/21 03:31:09;;;;;;;2.87;0.67;;;13.10;99.90;;;;;;6307801;22;20764;-38
2023/10/21 03:33:35;;;;;;;1.03;0.50;;;13.10;99.90;;;;;;6305600;22;20354;-38
2023/10/21 03:36:04;;;;;;;1.30;0.60;;;13.10;99.90;;;;;;6307259;22;20139;-42
2023/10/21 03:38:30;;;;;;;0.90;0.40;;;13.10;99.90;;;;;;6308518;22;20213;-38
2023/10/21 03:40:58;;;;;;;1.20;0.50;;;13.10;99.90;;;;;;6306881;22;20386;-41
2023/10/21 03:43:25;;;;;;;1.20;0.40;;;13.00;99.90;;;;;;6281020;22;20382;-41
2023/10/21 03:45:51;;;;;;;1.93;0.50;;;13.00;99.90;;;;;;6281092;22;20382;-39
2023/10/21 03:48:16;;;;;;;0.90;0.43;;;13.00;99.90;;;;;;6308698;22;20504;-42
2023/10/21 03:50:42;;;;;;;1.17;0.40;;;12.90;99.90;;;;;;6309428;22;20355;-39
2023/10/21 03:53:08;;;;;;;1.17;0.50;;;12.80;99.90;;;;;;6310148;22;20167;-43
2023/10/21 03:55:33;;;;;;;5.00;0.70;;;12.80;99.90;;;;;;6281729;22;20167;-41
2023/10/21 03:57:59;;;;;;;2.90;0.57;;;12.70;99.90;;;;;;6308602;22;20163;-38
2023/10/21 04:00:24;;;;;;;1.20;0.87;;;12.70;99.90;;;;;;6308633;22;20132;-37
2023/10/21 04:02:50;;;;;;;1.00;0.50;;;12.70;99.90;;;;;;6308268;22;20136;-39
2023/10/21 04:05:17;;;;;;;0.97;0.40;;;12.70;99.90;;;;;;6308942;22;20175;-39
2023/10/21 04:07:44;;;;;;;1.30;0.63;;;12.80;99.90;;;;;;6306915;22;20215;-37
2023/10/21 04:10:10;;;;;;;1.00;0.50;;;12.90;99.90;;;;;;6305719;22;20408;-39
2023/10/21 04:12:36;;;;;;;2.33;0.60;;;12.90;99.90;;;;;;6305390;22;20351;-43
2023/10/21 04:15:02;;;;;;;1.63;0.50;;;12.90;99.90;;;;;;6306052;22;20454;-39
2023/10/21 04:17:28;;;;;;;2.90;0.80;;;13.00;99.90;;;;;;6307267;22;20417;-38
2023/10/21 04:19:53;;;;;;;1.60;0.70;;;13.10;99.90;;;;;;6307072;22;20382;-39
2023/10/21 04:22:19;;;;;;;1.50;0.90;;;13.10;99.90;;;;;;6308435;22;20482;-38
2023/10/21 04:24:45;;;;;;;3.57;0.70;;;13.10;99.90;;;;;;6280713;22;20188;-39
2023/10/21 04:27:10;;;;;;;4.07;0.93;;;13.20;99.90;;;;;;6306514;22;20225;-39
2023/10/21 04:29:37;;;;;;;1.30;0.80;;;13.20;99.90;;;;;;6307498;22;20151;-38
2023/10/21 04:32:02;;;;;;;2.23;0.60;;;13.20;99.90;;;;;;6306416;22;20386;-37
2023/10/21 04:34:28;;;;;;;1.20;0.73;;;13.20;99.90;;;;;;6306021;22;20152;-38
2023/10/21 04:36:54;;;;;;;1.00;0.50;;;13.10;99.90;;;;;;6306261;22;20152;-39
2023/10/21 04:39:19;;;;;;;2.30;0.70;;;13.10;99.90;;;;;;6305509;22;20131;-37
2023/10/21 04:41:48;;;;;;;1.20;0.50;;;13.10;99.90;;;;;;6304348;22;20132;-40
2023/10/21 04:44:13;;;;;;;1.43;0.50;;;13.10;99.90;;;;;;6306813;22;20567;-39
2023/10/21 04:46:39;;;;;;;2.23;0.70;;;13.10;99.90;;;;;;6306348;22;20382;-38
2023/10/21 04:49:05;;;;;;;1.70;0.60;;;13.10;99.90;;;;;;6306421;22;20167;-40
2023/10/21 04:51:31;;;;;;;0.90;0.50;;;13.10;99.90;;;;;;6306599;22;20133;-38
2023/10/21 04:53:57;;;;;;;1.10;0.73;;;13.20;99.90;;;;;;6307002;22;20684;-39
2023/10/21 04:56:25;;;;;;;1.40;0.50;;;13.20;99.90;;;;;;6305917;22;20374;-40
2023/10/21 04:58:50;;;;;;;0.80;0.40;;;13.20;99.90;;;;;;6279202;22;20171;-42
2023/10/21 05:01:16;;;;;;;1.83;1.03;;;13.20;99.90;;;;;;6308361;22;20382;-39
2023/10/21 05:03:45;;;;;;;1.33;0.73;;;13.20;99.90;;;;;;6307916;22;20189;-39
2023/10/21 05:06:10;;;;;;;1.10;0.60;;;13.20;99.90;;;;;;6306609;22;20191;-38
2023/10/21 05:08:36;;;;;;;1.20;0.70;;;13.20;1.00;;;;;;6281043;22;20457;-39
2023/10/21 05:11:02;;;;;;;2.13;0.90;;;13.20;1.00;;;;;;6308791;22;20148;-38
2023/10/21 05:13:28;;;;;;;0.83;0.40;;;13.20;1.00;;;;;;6308238;22;20152;-40
2023/10/21 05:15:53;;;;;;;1.70;0.63;;;13.20;1.00;;;;;;6308050;22;20148;-41
2023/10/21 05:18:19;;;;;;;1.30;0.67;;;13.30;99.90;;;;;;6306830;22;20650;-45
2023/10/21 05:20:45;;;;;;;1.27;0.50;;;13.30;99.90;;;;;;6306850;22;20443;-41
2023/10/21 05:23:11;;;;;;;1.70;0.70;;;13.30;99.90;;;;;;6305210;22;20477;-39
2023/10/21 05:25:37;;;;;;;1.17;0.57;;;13.30;99.90;;;;;;6306552;22;20179;-42
2023/10/21 05:28:03;;;;;;;1.10;0.73;;;13.20;1.00;;;;;;6304865;22;20466;-38
2023/10/21 05:30:29;;;;;;;2.73;0.63;;;13.30;99.90;;;;;;6303538;22;20218;-40
2023/10/21 05:32:54;;;;;;;1.00;0.60;;;13.30;1.00;;;;;;6277026;22;20379;-38
2023/10/21 05:35:21;;;;;;;1.10;0.50;;;13.30;1.00;;;;;;6304899;22;20152;-38
2023/10/21 05:37:47;;;;;;;0.80;0.50;;;13.20;1.00;;;;;;6304446;22;20152;-39
2023/10/21 05:40:12;;;;;;;0.90;0.40;;;13.20;1.00;;;;;;6306151;22;20694;-38
2023/10/21 05:42:38;;;;;;;2.37;0.60;;;13.20;1.00;;;;;;6306619;22;20241;-39
2023/10/21 05:45:04;;;;;;;1.03;0.40;;;13.20;1.00;;;;;;6306120;22;20558;-39
2023/10/21 05:47:29;;;;;;;1.10;0.50;;;13.10;1.00;;;;;;6305190;22;20411;-38
2023/10/21 05:49:55;;;;;;;2.03;0.70;;;13.00;1.00;;;;;;6304948;22;20498;-38
2023/10/21 05:52:21;;;;;;;2.10;0.67;;;13.00;1.00;;;;;;6304278;22;20152;-39
2023/10/21 05:54:46;;;;;;;0.90;0.40;;;13.00;1.00;;;;;;6303672;22;20439;-39
2023/10/21 05:57:12;;;;;;;1.77;0.50;;;13.00;1.00;;;;;;6306194;22;20585;-39
2023/10/21 05:59:38;;;;;;;1.03;0.47;;;12.90;1.00;;;;;;6308370;22;20190;-41
2023/10/21 06:02:08;;;;;;;1.10;0.50;;;13.00;1.00;;;;;;6307809;22;20461;-38
2023/10/21 06:04:34;;;;;;;0.90;0.60;;;13.00;1.00;;;;;;6306809;22;20233;-41
2023/10/21 06:07:00;;;;;;;0.87;0.43;;;12.80;1.00;;;;;;6306948;22;20434;-37
2023/10/21 06:09:26;;;;;;;1.77;0.73;;;12.80;1.00;;;;;;6308291;22;20128;-38
2023/10/21 06:11:52;;;;;;;1.80;0.80;;;12.80;1.00;;;;;;6307349;22;20358;-39
2023/10/21 06:14:18;;;;;;;4.27;0.93;;;12.80;1.00;;;;;;6280052;22;20389;-39
2023/10/21 06:16:44;;;;;;;1.27;0.90;;;12.80;1.00;;;;;;6308800;22;20489;-40
2023/10/21 06:19:10;;;;;;;2.63;0.93;;;12.80;1.00;;;;;;6307952;22;20422;-38
2023/10/21 06:21:36;;;;;;;1.13;0.60;;;12.80;1.00;;;;;;6307275;22;20408;-38
2023/10/21 06:24:06;;;;;;;1.30;0.60;;;12.90;1.00;;;;;;6305513;22;20759;-39
2023/10/21 06:26:31;;;;;;;1.50;0.50;;;13.00;1.00;;;;;;6304214;22;20816;-39
2023/10/21 06:28:58;;;;;;;1.70;0.80;;;13.00;1.00;;;;;;6302015;22;20375;-41
2023/10/21 06:31:24;;;;;;;0.90;0.40;;;13.00;1.00;;;;;;6303599;22;20172;-38
2023/10/21 06:33:49;;;;;;;0.80;0.40;;;13.10;99.90;;;;;;6303898;22;20749;-39
2023/10/21 06:36:16;;;;;;;0.83;0.53;;;13.30;99.90;;;;;;6304461;22;20498;-37
2023/10/21 06:38:41;;;;;;;1.07;0.60;;;13.40;99.90;;;;;;6305770;22;20144;-42
2023/10/21 06:41:07;;;;;;;1.60;0.90;;;13.50;1.00;;;;;;6306035;22;20381;-39
2023/10/21 06:43:33;;;;;;;2.50;2.13;;;13.60;1.00;;;;;;6308872;22;20159;-37
2023/10/21 06:45:59;;;;;;;1.50;0.80;;;13.60;1.00;;;;;;6308981;22;20531;-37
2023/10/21 06:48:26;;;;;;;1.43;0.60;;;13.70;1.00;;;;;;6282520;22;20155;-39
2023/10/21 06:50:52;;;;;;;0.90;0.50;;;14.00;99.90;;;;;;6279131;22;20374;-39
2023/10/21 06:53:18;;;;;;;0.70;0.40;;;14.20;1.00;;;;;;6307284;22;20397;-40
2023/10/21 06:55:44;;;;;;;1.27;0.50;;;14.30;99.90;;;;;;6305998;22;20390;-40
2023/10/21 06:58:11;;;;;;;0.90;0.50;;;14.60;1.00;;;;;;6306511;22;20183;-37
2023/10/21 07:00:37;;;;;;;2.10;0.70;;;14.80;54.40;;;;;;6280013;22;20504;-40
2023/10/21 07:03:03;;;;;;;1.30;0.70;;;15.10;24.80;;;;;;6306462;22;20398;-38
2023/10/21 07:05:29;;;;;;;0.90;0.40;;;15.50;1.00;;;;;;6305810;22;20491;-41
2023/10/21 07:07:55;;;;;;;0.90;0.40;;;16.00;99.90;;;;;;6306221;22;20484;-38
2023/10/21 07:10:20;;;;;;;1.10;0.50;;;16.20;1.00;;;;;;6305586;22;20158;-39
2023/10/21 07:12:46;;;;;;;0.80;0.40;;;16.60;99.90;;;;;;6307069;22;20159;-39
2023/10/21 07:15:11;;;;;;;1.43;0.70;;;16.90;1.00;;;;;;6306573;22;20406;-39
2023/10/21 07:17:37;;;;;;;2.70;0.73;;;17.20;1.00;;;;;;6307501;22;20206;-41
2023/10/21 07:20:05;;;;;;;1.10;0.60;;;17.20;1.00;;;;;;6305455;22;20231;-40
2023/10/21 07:22:31;;;;;;;0.80;0.40;;;17.40;1.00;;;;;;6307739;22;20158;-40
2023/10/21 07:24:57;;;;;;;1.30;0.50;;;17.50;99.90;;;;;;6307708;22;20457;-39
2023/10/21 07:27:24;;;;;;;1.40;0.70;;;17.60;99.90;;;;;;6307358;22;20632;-41
2023/10/21 07:29:49;;;;;;;1.20;0.67;;;17.40;99.90;;;;;;6308487;22;20370;-39
2023/10/21 07:32:15;;;;;;;1.20;0.77;;;17.10;99.90;;;;;;6308060;22;20381;-40
2023/10/21 07:34:41;;;;;;;1.67;0.83;;;17.10;99.90;;;;;;6306873;22;20390;-39
2023/10/21 07:37:07;;;;;;;1.87;0.60;;;17.20;99.90;;;;;;6305825;22;20931;-40
2023/10/21 07:39:33;;;;;;;0.80;0.40;;;17.40;99.90;;;;;;6307593;22;20366;-39
2023/10/21 07:41:58;;;;;;;1.77;0.50;;;17.40;99.90;;;;;;6309009;22;20159;-41
2023/10/21 07:44:24;;;;;;;1.20;0.60;;;17.50;99.90;;;;;;6307592;22;20539;-39
2023/10/21 07:46:52;;;;;;;1.73;0.50;;;18.40;99.90;;;;;;6307057;22;20528;-40
2023/10/21 07:49:18;;;;;;;1.47;0.40;;;19.00;95.70;;;;;;6305073;22;20148;-39
2023/10/21 07:51:43;;;;;;;1.20;0.50;;;19.70;32.90;;;;;;6307194;22;20421;-40
2023/10/21 07:54:09;;;;;;;1.43;0.40;;;20.00;1.00;;;;;;6308240;22;20136;-39
2023/10/21 07:56:35;;;;;;;1.47;0.70;;;19.50;1.00;;;;;;6308186;22;20224;-40
2023/10/21 07:59:01;;;;;;;1.70;0.80;;;19.90;1.00;;;;;;6307287;22;20209;-39
2023/10/21 08:01:26;;;;;;;1.03;0.50;;;20.60;1.00;;;;;;6307395;22;20400;-40
2023/10/21 08:03:52;;;;;;;1.73;0.50;;;21.30;1.00;;;;;;6306227;22;20516;-38
2023/10/21 08:06:18;;;;;;;1.00;0.40;;;20.80;1.00;;;;;;6307443;22;20579;-39
2023/10/21 08:08:43;;;;;;;1.93;1.23;;;20.50;1.00;;;;;;6306307;22;20132;-38
2023/10/21 08:11:09;;;;;;;3.10;0.70;;;20.40;1.00;;;;;;6307922;22;20553;-40
2023/10/21 08:13:35;;;;;;;1.47;0.60;;;20.10;1.00;;;;;;6307200;22;20164;-40
2023/10/21 08:16:01;;;;;;;1.67;0.60;;;20.20;1.00;;;;;;6306062;22;20712;-39
2023/10/21 08:18:26;;;;;;;1.80;0.43;;;20.70;1.00;;;;;;6279737;22;20167;-39
2023/10/21 08:20:52;;;;;;;1.20;0.60;;;21.20;1.00;;;;;;6305772;22;20144;-39
2023/10/21 08:23:17;;;;;;;1.63;0.60;;;22.30;1.00;;;;;;6305998;22;20439;-39
2023/10/21 08:25:43;;;;;;;1.10;0.50;;;22.40;1.00;;;;;;6303691;22;20183;-39
2023/10/21 08:28:10;;;;;;;2.40;0.50;;;22.30;1.00;;;;;;6304072;22;20578;-41
2023/10/21 08:30:38;;;;;;;1.20;0.60;;;22.20;1.00;;;;;;6304781;22;20184;-44
2023/10/21 08:33:07;;;;;;;0.90;0.40;;;21.40;1.00;;;;;;6305226;22;20350;-40
2023/10/21 08:35:33;;;;;;;1.80;0.57;;;21.40;1.00;;;;;;6304579;22;20378;-40
2023/10/21 08:37:59;;;;;;;2.80;0.70;;;22.10;1.00;;;;;;6303407;22;20404;-39
2023/10/21 08:40:25;;;;;;;1.50;0.60;;;21.90;1.00;;;;;;6303993;22;20418;-40
2023/10/21 08:42:51;;;;;;;1.30;0.60;;;22.00;1.00;;;;;;6305740;22;20205;-39
2023/10/21 08:45:19;;;;;;;1.43;0.60;;;21.90;1.00;;;;;;6252860;22;20949;-40
2023/10/21 08:47:45;;;;;;;1.90;0.60;;;21.90;1.00;;;;;;6306539;22;20588;-42
2023/10/21 08:50:13;;;;;;;1.77;0.70;;;21.40;1.00;;;;;;6278705;22;20816;-39
2023/10/21 08:52:40;;;;;;;1.70;0.80;;;20.30;1.00;;;;;;6304647;22;20695;-42
2023/10/21 08:55:06;;;;;;;1.90;0.70;;;19.50;1.00;;;;;;6305453;22;20397;-39
2023/10/21 08:57:35;;;;;;;2.57;0.77;;;18.80;1.00;;;;;;6305074;22;20359;-38
2023/10/21 09:00:04;;;;;;;1.10;0.53;;;18.10;1.00;;;;;;6302997;22;20366;-39
2023/10/21 09:02:29;;;;;;;1.97;0.83;;;17.70;1.00;;;;;;6304693;22;20378;-39
2023/10/21 09:04:55;;;;;;;2.47;0.60;;;17.60;1.00;;;;;;6305980;22;20491;-40
2023/10/21 09:07:21;;;;;;;1.60;0.70;;;17.50;1.00;;;;;;6303209;22;20322;-39
2023/10/21 09:09:46;;;;;;;1.60;0.50;;;17.50;1.00;;;;;;6276431;22;20167;-38
2023/10/21 09:12:17;;;;;;;1.77;0.70;;;17.60;1.00;;;;;;6303382;22;20516;-39
2023/10/21 09:15:09;;;;;;;2.23;0.40;;;18.40;1.00;;;;;;6304644;22;20219;-39
2023/10/21 09:17:39;;;;;;;0.90;0.40;;;19.10;1.00;;;;;;6270853;22;20736;-41
2023/10/21 09:20:07;;;;;;;3.17;0.60;;;20.10;1.00;;;;;;6304521;22;20806;-39
2023/10/21 09:22:34;;;;;;;1.60;0.70;;;21.10;1.00;;;;;;6303253;22;20382;-39
2023/10/21 09:25:15;;;;;;;1.20;0.60;;;21.80;1.00;;;;;;6250672;22;20733;-40
2023/10/21 09:27:58;;;;;;;2.40;0.73;;;23.10;1.00;;;;;;6274514;22;20398;-42
2023/10/21 09:30:25;;;;;;;1.10;0.53;;;24.10;1.00;;;;;;6304779;22;20463;-42
2023/10/21 09:32:51;;;;;;;1.20;0.60;;;24.40;1.00;;;;;;6304239;22;20358;-41
2023/10/21 09:35:21;;;;;;;3.23;0.60;;;24.90;1.00;;;;;;6303369;22;20782;-42
2023/10/21 09:37:48;;;;;;;1.50;0.60;;;24.50;1.00;;;;;;6305342;22;20447;-40
2023/10/21 09:40:14;;;;;;;1.97;0.63;;;25.60;1.00;;;;;;6304358;22;20392;-40
2023/10/21 09:42:44;;;;;;;1.73;0.67;;;26.20;1.00;;;;;;6305817;22;20447;-45
2023/10/21 09:45:13;;;;;;;1.20;0.50;;;26.10;1.00;;;;;;6306131;22;20797;-43
2023/10/21 09:47:41;;;;;;;1.57;0.60;;;25.70;1.00;;;;;;6305060;22;20692;-40
2023/10/21 09:50:12;;;;;;;2.33;0.70;;;24.70;1.00;;;;;;6305906;22;20386;-41
2023/10/21 09:52:52;;;;;;;2.10;0.80;;;24.40;1.00;;;;;;6305246;22;20412;-43
2023/10/21 09:55:24;;;;;;;1.50;0.60;;;24.30;1.00;;;;;;6306670;22;20381;-39
2023/10/21 09:57:52;;;;;;;2.53;0.47;;;24.10;1.00;;;;;;6304198;22;20397;-38
2023/10/21 10:00:19;;;;;;;1.07;0.40;;;23.90;1.00;;;;;;6307542;22;20823;-39
2023/10/21 10:02:48;;;;;;;3.37;0.60;;;23.60;1.00;;;;;;6306541;22;20361;-39
2023/10/21 10:05:16;;;;;;;1.73;0.57;;;23.40;1.00;;;;;;6277908;22;20418;-40
2023/10/21 10:07:45;;;;;;;1.97;0.60;;;23.60;1.00;;;;;;6304907;22;20713;-41
2023/10/21 10:10:12;;;;;;;2.60;0.50;;;23.80;1.00;;;;;;6305697;22;20431;-39
2023/10/21 10:12:58;;;;;;;1.30;0.53;;;23.90;1.00;;;;;;6276767;22;20378;-41
2023/10/21 10:15:31;;;;;;;1.20;0.40;;;23.00;1.00;;;;;;6304304;22;20358;-40
2023/10/21 10:17:57;;;;;;;1.03;0.50;;;22.00;1.00;;;;;;6304018;22;20358;-38
2023/10/21 10:20:25;;;;;;;3.57;0.70;;;21.90;1.00;;;;;;6306150;22;20406;-38
2023/10/21 10:23:10;;;;;;;1.20;0.43;;;22.20;1.00;;;;;;6307740;22;20386;-40
2023/10/21 10:25:46;;;;;;;1.00;0.50;;;22.70;1.00;;;;;;6307560;22;20437;-40
2023/10/21 10:28:19;;;;;;;2.90;0.80;;;23.70;1.00;;;;;;6308763;22;20378;-42
2023/10/21 10:30:49;;;;;;;1.63;0.63;;;23.80;1.00;;;;;;6305682;22;20397;-40
2023/10/21 10:33:22;;;;;;;1.53;0.50;;;24.50;1.00;;;;;;6303417;22;20491;-42
2023/10/21 10:35:50;;;;;;;1.77;0.67;;;25.40;1.00;;;;;;6305066;22;20793;-44
2023/10/21 10:38:34;;;;;;;1.70;0.80;;;27.00;1.00;;;;;;6304660;22;20462;-42
2023/10/21 10:41:11;;;;;;;2.00;0.60;;;28.20;1.00;;;;;;6307468;22;20386;-44
2023/10/21 10:43:43;;;;;;;2.20;0.70;;;26.90;1.00;;;;;;6305905;22;20789;-40
2023/10/21 10:46:15;;;;;;;2.33;0.60;;;25.10;1.00;;;;;;6306804;22;20401;-41
2023/10/21 10:48:42;;;;;;;1.13;0.47;;;23.30;1.00;;;;;;6279693;22;20464;-41
2023/10/21 10:51:12;;;;;;;1.20;0.53;;;22.00;1.00;;;;;;6307966;22;20369;-40
2023/10/21 10:53:39;;;;;;;1.10;0.53;;;21.00;1.00;;;;;;6308408;22;20459;-44
2023/10/21 10:56:09;;;;;;;1.37;0.47;;;20.70;1.00;;;;;;6279686;22;20394;-39
2023/10/21 10:58:35;;;;;;;1.00;0.40;;;20.60;1.00;;;;;;6276591;22;20409;-40
2023/10/21 11:01:01;;;;;;;2.50;0.63;;;19.80;1.00;;;;;;6305206;22;20386;-40
2023/10/21 11:03:28;;;;;;;3.07;0.60;;;19.50;1.00;;;;;;6305335;22;20136;-42
2023/10/21 11:05:55;;;;;;;2.40;0.90;;;19.20;1.00;;;;;;6305708;22;20253;-41
2023/10/21 11:08:21;;;;;;;2.40;0.53;;;19.20;1.00;;;;;;6306941;22;20698;-41
2023/10/21 11:10:47;;;;;;;1.27;0.63;;;19.50;1.00;;;;;;6307420;22;20378;-39
2023/10/21 11:13:13;;;;;;;1.73;0.87;;;20.20;1.00;;;;;;6306546;22;20692;-41
2023/10/21 11:15:44;;;;;;;1.37;0.57;;;21.90;1.00;;;;;;6307007;22;20382;-43
2023/10/21 11:18:11;;;;;;;2.40;0.40;;;23.50;1.00;;;;;;6306352;22;20443;-42
2023/10/21 11:20:53;;;;;;;1.30;0.50;;;23.30;1.00;;;;;;6278216;22;20504;-40
2023/10/21 11:23:24;;;;;;;2.23;0.57;;;22.00;1.00;;;;;;6306773;22;20563;-41
2023/10/21 11:25:51;;;;;;;2.20;0.70;;;21.10;1.00;;;;;;6280481;22;20844;-41
2023/10/21 11:28:17;;;;;;;1.83;0.63;;;20.50;1.00;;;;;;6304514;22;20657;-40
2023/10/21 11:30:48;;;;;;;2.43;0.50;;;19.90;1.00;;;;;;6277722;22;20383;-41
2023/10/21 11:33:15;;;;;;;1.20;0.50;;;19.20;1.00;;;;;;6306737;22;20419;-40
2023/10/21 11:35:42;;;;;;;2.07;0.87;;;19.00;1.00;;;;;;6305764;22;20521;-41
2023/10/21 11:38:07;;;;;;;2.17;0.77;;;18.80;1.00;;;;;;6278161;22;20378;-41
2023/10/21 11:40:36;;;;;;;1.40;0.60;;;18.50;1.00;;;;;;6305485;22;20389;-39
2023/10/21 11:43:05;;;;;;;1.60;0.80;;;18.30;1.00;;;;;;6304771;22;20401;-40
2023/10/21 11:45:31;;;;;;;2.70;0.73;;;18.10;1.00;;;;;;6252613;22;20845;-39
2023/10/21 11:47:59;;;;;;;2.90;1.33;;;18.30;1.00;;;;;;6306645;22;20365;-38
2023/10/21 11:50:32;;;;;;;1.47;0.60;;;18.40;1.00;;;;;;6278367;22;20144;-39
2023/10/21 11:53:01;;;;;;;2.00;0.70;;;19.10;1.00;;;;;;6307260;22;20425;-41
2023/10/21 12:17:07;;;;;;;1.67;0.70;;;21.80;1.00;;;;;;6304651;22;20501;-39
2023/10/21 12:29:00;;;;;;;1.63;0.90;;;24.50;1.00;;;;;;6302992;22;20409;-40
2023/10/21 12:36:32;;;;;;;1.93;0.60;;;23.30;1.00;;;;;;6303322;22;20680;-39
2023/10/21 12:41:45;;;;;;;1.70;0.70;;;20.40;1.00;;;;;;6313663;22;20800;-40
2023/10/21 12:44:14;;;;;;;2.30;0.70;;;19.50;1.00;;;;;;6305408;22;20454;-41
2023/10/21 12:46:41;;;;;;;2.70;0.60;;;19.00;1.00;;;;;;6305122;22;20389;-40
2023/10/21 12:49:13;;;;;;;1.70;0.80;;;18.70;1.00;;;;;;6303445;22;21010;-41
2023/10/21 12:51:40;;;;;;;2.20;0.67;;;18.50;1.00;;;;;;6304427;22;20522;-40
2023/10/21 12:54:10;;;;;;;1.30;0.50;;;18.50;1.00;;;;;;6303631;22;20355;-39
2023/10/21 12:56:39;;;;;;;1.80;0.67;;;18.70;1.00;;;;;;6278467;22;20460;-39
2023/10/21 12:59:08;;;;;;;1.10;0.50;;;19.30;1.00;;;;;;6305640;22;20393;-39
2023/10/21 13:01:34;;;;;;;2.03;0.77;;;20.40;1.00;;;;;;6305099;22;20423;-40
2023/10/21 13:04:00;;;;;;;1.50;0.60;;;20.70;1.00;;;;;;6303747;22;20705;-41
2023/10/21 13:06:26;;;;;;;1.97;0.67;;;21.20;1.00;;;;;;6306408;22;20433;-40
2023/10/21 13:08:52;;;;;;;1.40;0.67;;;22.30;1.00;;;;;;6306951;22;20358;-41
2023/10/21 13:11:18;;;;;;;1.43;0.50;;;22.20;1.00;;;;;;6279455;22;20205;-40
2023/10/21 13:13:44;;;;;;;1.50;0.57;;;23.20;1.00;;;;;;6307645;22;20778;-41
2023/10/21 13:16:10;;;;;;;1.33;0.70;;;24.80;1.00;;;;;;6305462;22;20378;-41
2023/10/21 13:18:36;;;;;;;1.83;0.50;;;25.80;1.00;;;;;;6304163;22;20667;-40
2023/10/21 13:21:02;;;;;;;2.27;0.70;;;25.60;1.00;;;;;;6305977;22;20136;-42
2023/10/21 13:23:28;;;;;;;3.90;0.70;;;25.90;1.00;;;;;;6279998;22;20155;-41
2023/10/21 13:25:53;;;;;;;2.30;0.70;;;26.70;1.00;;;;;;6280667;22;20508;-40
2023/10/21 13:28:20;;;;;;;1.60;0.70;;;27.00;1.00;;;;;;6303818;22;20340;-40
2023/10/21 13:30:48;;;;;;;3.23;0.70;;;26.30;1.00;;;;;;6305157;22;20196;-45